createdAt,value
2017-01-22T00:01:34.620Z,0
2017-01-22T00:02:16.310Z,0
2017-01-22T00:02:57.972Z,0
2017-01-22T00:03:39.783Z,0
2017-01-22T00:07:49.855Z,0
2017-01-22T00:08:31.568Z,0
2017-01-22T00:09:13.283Z,0
2017-01-22T00:09:54.794Z,0
2017-01-22T00:10:36.468Z,0
2017-01-22T00:11:18.142Z,0
2017-01-22T00:11:59.860Z,0
2017-01-22T00:12:41.383Z,0
2017-01-22T00:15:17.851Z,0
2017-01-22T00:17:38.455Z,0
2017-01-22T00:20:09.476Z,0
2017-01-22T00:20:51.147Z,0
2017-01-22T00:23:22.241Z,0
2017-01-22T00:24:04.024Z,0
2017-01-22T00:24:45.752Z,0
2017-01-22T00:25:27.351Z,0
2017-01-22T00:31:37.421Z,0
2017-01-22T00:33:37.430Z,0
2017-01-22T00:34:19.157Z,0
2017-01-22T00:35:01.017Z,0
2017-01-22T00:35:42.850Z,0
2017-01-22T00:36:24.612Z,0
2017-01-22T00:37:06.315Z,0
2017-01-22T00:41:32.171Z,0
2017-01-22T00:44:03.122Z,0
2017-01-22T00:44:44.961Z,0
2017-01-22T00:47:16.059Z,0
2017-01-22T00:47:57.855Z,0
2017-01-22T00:48:39.568Z,0
2017-01-22T00:49:21.026Z,0
2017-01-22T00:50:02.848Z,0
2017-01-22T00:50:44.460Z,0
2017-01-22T00:53:20.926Z,0
2017-01-22T00:54:02.564Z,0
2017-01-22T00:56:23.264Z,0
2017-01-22T00:57:04.725Z,0
2017-01-22T00:57:46.364Z,0
2017-01-22T00:58:28.040Z,0
2017-01-22T00:59:09.709Z,0
2017-01-22T01:01:09.693Z,0
2017-01-22T01:01:51.436Z,0
2017-01-22T01:02:33.174Z,0
2017-01-22T01:03:14.745Z,0
2017-01-22T01:03:56.541Z,0
2017-01-22T01:04:38.123Z,0
2017-01-22T01:05:19.820Z,0
2017-01-22T01:06:01.577Z,0
2017-01-22T01:06:43.342Z,0
2017-01-22T01:07:25.041Z,0
2017-01-22T01:08:06.792Z,0
2017-01-22T01:08:48.499Z,0
2017-01-22T01:09:30.212Z,0
2017-01-22T01:12:01.212Z,0
2017-01-22T01:14:21.702Z,0
2017-01-22T01:15:03.214Z,0
2017-01-22T01:18:42.150Z,0
2017-01-22T01:19:23.918Z,0
2017-01-22T01:20:05.617Z,0
2017-01-22T01:22:26.145Z,0
2017-01-22T01:23:07.812Z,0
2017-01-22T01:23:49.371Z,0
2017-01-22T01:24:31.033Z,0
2017-01-22T01:25:12.746Z,0
2017-01-22T01:25:54.477Z,0
2017-01-22T01:26:36.219Z,0
2017-01-22T01:27:18.022Z,0
2017-01-22T01:27:59.727Z,0
2017-01-22T01:28:41.373Z,0
2017-01-22T01:29:23.054Z,0
2017-01-22T01:30:04.741Z,0
2017-01-22T01:30:46.482Z,0
2017-01-22T01:31:28.119Z,0
2017-01-22T01:32:09.835Z,0
2017-01-22T01:32:51.558Z,0
2017-01-22T01:33:33.173Z,0
2017-01-22T01:34:14.771Z,0
2017-01-22T01:34:56.539Z,0
2017-01-22T01:35:38.201Z,0
2017-01-22T01:36:19.947Z,0
2017-01-22T01:37:01.624Z,0
2017-01-22T01:37:43.260Z,0
2017-01-22T01:38:24.928Z,0
2017-01-22T01:39:06.643Z,0
2017-01-22T01:41:37.607Z,0
2017-01-22T01:42:19.304Z,0
2017-01-22T01:43:00.976Z,0
2017-01-22T01:43:42.762Z,0
2017-01-22T01:46:13.566Z,0
2017-01-22T01:46:55.356Z,0
2017-01-22T01:47:37.061Z,0
2017-01-22T01:49:37.106Z,0
2017-01-22T01:51:57.848Z,0
2017-01-22T01:52:39.603Z,0
2017-01-22T01:53:20.999Z,0
2017-01-22T01:54:02.609Z,0
2017-01-22T01:54:44.012Z,0
2017-01-22T01:55:25.504Z,0
2017-01-22T01:56:07.134Z,0
2017-01-22T01:56:48.871Z,0
2017-01-22T01:57:30.416Z,0
2017-01-22T01:58:12.162Z,0
2017-01-22T01:58:53.649Z,0
2017-01-22T02:01:08.052Z,0
2017-01-22T02:01:48.582Z,0
2017-01-22T02:02:29.112Z,0
2017-01-22T02:03:09.640Z,0
2017-01-22T02:03:50.172Z,0
2017-01-22T02:04:30.702Z,0
2017-01-22T02:05:11.233Z,0
2017-01-22T02:05:51.760Z,0
2017-01-22T02:06:32.288Z,0
2017-01-22T02:07:12.817Z,0
2017-01-22T02:07:53.353Z,0
2017-01-22T02:08:33.882Z,0
2017-01-22T02:09:14.419Z,0
2017-01-22T02:09:54.944Z,0
2017-01-22T02:10:35.475Z,0
2017-01-22T02:11:16.008Z,0
2017-01-22T02:11:56.528Z,0
2017-01-22T02:12:37.050Z,0
2017-01-22T02:13:17.579Z,0
2017-01-22T02:13:58.107Z,0
2017-01-22T02:14:38.628Z,0
2017-01-22T02:15:19.151Z,0
2017-01-22T02:15:59.681Z,0
2017-01-22T02:16:40.210Z,0
2017-01-22T02:17:20.731Z,0
2017-01-22T02:18:01.258Z,0
2017-01-22T02:18:41.793Z,0
2017-01-22T02:19:22.329Z,0
2017-01-22T02:20:02.854Z,0
2017-01-22T02:20:43.389Z,0
2017-01-22T02:21:23.905Z,0
2017-01-22T02:22:04.447Z,0
2017-01-22T02:22:44.976Z,0
2017-01-22T02:23:25.509Z,0
2017-01-22T02:24:06.046Z,0
2017-01-22T02:24:46.562Z,0
2017-01-22T02:25:27.099Z,0
2017-01-22T02:26:07.628Z,0
2017-01-22T02:26:48.152Z,0
2017-01-22T02:27:28.681Z,0
2017-01-22T02:28:09.207Z,0
2017-01-22T02:28:49.735Z,0
2017-01-22T02:29:30.266Z,0
2017-01-22T02:30:10.788Z,0
2017-01-22T02:30:51.313Z,0
2017-01-22T02:31:31.837Z,0
2017-01-22T02:32:12.371Z,0
2017-01-22T02:32:52.897Z,0
2017-01-22T02:33:33.427Z,0
2017-01-22T02:34:13.952Z,0
2017-01-22T02:34:54.496Z,0
2017-01-22T02:35:35.011Z,0
2017-01-22T02:36:15.531Z,0
2017-01-22T02:36:56.061Z,0
2017-01-22T02:37:36.588Z,0
2017-01-22T02:38:17.118Z,0
2017-01-22T02:38:57.650Z,0
2017-01-22T02:39:38.176Z,0
2017-01-22T02:40:18.704Z,0
2017-01-22T02:40:59.229Z,0
2017-01-22T02:41:39.757Z,0
2017-01-22T02:42:20.277Z,0
2017-01-22T02:43:00.806Z,0
2017-01-22T02:43:41.336Z,0
2017-01-22T02:44:21.862Z,0
2017-01-22T02:45:02.390Z,0
2017-01-22T02:45:42.915Z,0
2017-01-22T02:46:23.448Z,0
2017-01-22T02:47:03.981Z,0
2017-01-22T02:47:44.502Z,0
2017-01-22T02:48:25.021Z,0
2017-01-22T02:49:05.545Z,0
2017-01-22T02:49:46.074Z,0
2017-01-22T02:50:26.594Z,0
2017-01-22T02:51:07.121Z,0
2017-01-22T02:51:47.658Z,0
2017-01-22T02:52:28.188Z,0
2017-01-22T02:53:08.717Z,0
2017-01-22T02:53:49.241Z,0
2017-01-22T02:54:29.769Z,0
2017-01-22T02:55:10.299Z,0
2017-01-22T02:55:50.825Z,0
2017-01-22T02:56:31.355Z,0
2017-01-22T02:57:11.884Z,0
2017-01-22T02:57:52.412Z,0
2017-01-22T02:58:32.938Z,0
2017-01-22T02:59:13.457Z,0
2017-01-22T02:59:53.989Z,0
2017-01-22T03:00:34.520Z,0
2017-01-22T03:01:15.042Z,0
2017-01-22T03:01:55.590Z,0
2017-01-22T03:02:36.093Z,0
2017-01-22T03:03:16.626Z,0
2017-01-22T03:03:57.151Z,0
2017-01-22T03:04:37.679Z,0
2017-01-22T03:05:18.204Z,0
2017-01-22T03:05:58.727Z,0
2017-01-22T03:06:39.259Z,0
2017-01-22T03:07:19.782Z,0
2017-01-22T03:08:00.310Z,0
2017-01-22T03:08:40.828Z,0
2017-01-22T03:09:21.351Z,0
2017-01-22T03:10:01.886Z,0
2017-01-22T03:10:42.411Z,0
2017-01-22T03:11:22.933Z,0
2017-01-22T03:12:03.470Z,0
2017-01-22T03:12:43.992Z,0
2017-01-22T03:13:24.530Z,0
2017-01-22T03:14:05.046Z,0
2017-01-22T03:14:45.572Z,0
2017-01-22T03:15:26.099Z,0
2017-01-22T03:16:06.632Z,0
2017-01-22T03:16:47.163Z,0
2017-01-22T03:17:27.683Z,0
2017-01-22T03:18:08.216Z,0
2017-01-22T03:18:48.740Z,0
2017-01-22T03:19:29.265Z,0
2017-01-22T03:20:09.797Z,0
2017-01-22T03:20:50.354Z,0
2017-01-22T03:21:30.877Z,0
2017-01-22T03:22:11.402Z,0
2017-01-22T03:22:51.934Z,0
2017-01-22T03:23:32.462Z,0
2017-01-22T03:24:12.984Z,0
2017-01-22T03:24:53.516Z,0
2017-01-22T03:25:34.040Z,0
2017-01-22T03:26:14.569Z,0
2017-01-22T03:26:55.097Z,0
2017-01-22T03:27:35.626Z,0
2017-01-22T03:28:16.149Z,0
2017-01-22T03:28:56.688Z,0
2017-01-22T03:29:37.209Z,0
2017-01-22T03:30:17.738Z,0
2017-01-22T03:30:58.259Z,0
2017-01-22T03:31:38.788Z,0
2017-01-22T03:32:19.313Z,0
2017-01-22T03:32:59.838Z,0
2017-01-22T03:33:40.377Z,0
2017-01-22T03:34:20.906Z,0
2017-01-22T03:35:01.437Z,0
2017-01-22T03:35:41.963Z,0
2017-01-22T03:36:22.487Z,0
2017-01-22T03:37:03.016Z,0
2017-01-22T03:37:43.544Z,0
2017-01-22T03:38:24.067Z,0
2017-01-22T03:39:04.589Z,0
2017-01-22T03:39:45.114Z,0
2017-01-22T03:40:25.779Z,0
2017-01-22T03:41:06.300Z,0
2017-01-22T03:41:46.821Z,0
2017-01-22T03:42:27.345Z,0
2017-01-22T03:43:07.886Z,0
2017-01-22T03:43:48.419Z,0
2017-01-22T03:44:28.948Z,0
2017-01-22T03:45:09.471Z,0
2017-01-22T03:45:49.998Z,0
2017-01-22T03:46:30.527Z,0
2017-01-22T03:47:11.054Z,0
2017-01-22T03:47:51.582Z,0
2017-01-22T03:48:32.112Z,0
2017-01-22T03:49:12.642Z,0
2017-01-22T03:49:53.161Z,0
2017-01-22T03:50:33.701Z,0
2017-01-22T03:51:14.223Z,0
2017-01-22T03:51:54.750Z,0
2017-01-22T03:52:35.281Z,0
2017-01-22T03:53:15.806Z,0
2017-01-22T03:53:56.336Z,0
2017-01-22T03:54:36.852Z,0
2017-01-22T03:55:17.394Z,0
2017-01-22T03:55:57.919Z,0
2017-01-22T03:56:38.498Z,0
2017-01-22T03:57:19.033Z,0
2017-01-22T03:57:59.558Z,0
2017-01-22T03:58:40.083Z,0
2017-01-22T03:59:20.606Z,0
2017-01-22T04:00:01.137Z,0
2017-01-22T04:00:41.661Z,0
2017-01-22T04:01:22.183Z,0
2017-01-22T04:02:02.708Z,0
2017-01-22T04:02:43.235Z,0
2017-01-22T04:03:23.761Z,0
2017-01-22T04:04:04.284Z,0
2017-01-22T04:04:44.809Z,0
2017-01-22T04:05:25.338Z,0
2017-01-22T04:06:05.861Z,0
2017-01-22T04:06:46.385Z,0
2017-01-22T04:07:26.909Z,0
2017-01-22T04:08:07.437Z,0
2017-01-22T04:08:48.000Z,0
2017-01-22T04:09:28.497Z,0
2017-01-22T04:10:09.031Z,0
2017-01-22T04:10:49.644Z,0
2017-01-22T04:11:30.171Z,0
2017-01-22T04:12:10.703Z,0
2017-01-22T04:12:51.231Z,0
2017-01-22T04:13:31.755Z,0
2017-01-22T04:14:12.305Z,0
2017-01-22T04:14:52.813Z,0
2017-01-22T04:15:33.337Z,0
2017-01-22T04:16:13.865Z,0
2017-01-22T04:16:54.395Z,0
2017-01-22T04:17:34.920Z,0
2017-01-22T04:18:15.438Z,0
2017-01-22T04:18:55.967Z,0
2017-01-22T04:19:36.488Z,0
2017-01-22T04:20:17.017Z,0
2017-01-22T04:20:57.540Z,0
2017-01-22T04:21:38.066Z,0
2017-01-22T04:22:18.590Z,0
2017-01-22T04:22:59.119Z,0
2017-01-22T04:23:39.640Z,0
2017-01-22T04:24:20.181Z,0
2017-01-22T04:25:00.709Z,0
2017-01-22T04:25:41.241Z,0
2017-01-22T04:26:21.770Z,0
2017-01-22T04:27:02.297Z,0
2017-01-22T04:27:42.825Z,0
2017-01-22T04:28:23.361Z,0
2017-01-22T04:29:03.889Z,0
2017-01-22T04:29:44.423Z,0
2017-01-22T04:30:24.957Z,0
2017-01-22T04:31:05.487Z,0
2017-01-22T04:31:46.012Z,0
2017-01-22T04:32:26.545Z,0
2017-01-22T04:33:07.071Z,0
2017-01-22T04:33:47.593Z,0
2017-01-22T04:34:28.119Z,0
2017-01-22T04:35:08.647Z,0
2017-01-22T04:35:49.168Z,0
2017-01-22T04:36:29.696Z,0
2017-01-22T04:37:10.223Z,0
2017-01-22T04:37:50.749Z,0
2017-01-22T04:38:31.274Z,0
2017-01-22T04:39:11.799Z,0
2017-01-22T04:39:52.325Z,0
2017-01-22T04:40:32.854Z,0
2017-01-22T04:41:13.381Z,0
2017-01-22T04:41:53.910Z,0
2017-01-22T04:42:34.428Z,0
2017-01-22T04:43:14.947Z,0
2017-01-22T04:43:55.475Z,0
2017-01-22T04:44:36.002Z,0
2017-01-22T04:45:16.530Z,0
2017-01-22T04:45:57.057Z,0
2017-01-22T04:46:37.583Z,0
2017-01-22T04:47:18.112Z,0
2017-01-22T04:47:58.634Z,0
2017-01-22T04:48:39.171Z,0
2017-01-22T04:49:19.698Z,0
2017-01-22T04:50:00.233Z,0
2017-01-22T04:50:40.753Z,0
2017-01-22T04:51:21.278Z,0
2017-01-22T04:52:01.801Z,0
2017-01-22T04:52:42.345Z,0
2017-01-22T04:53:22.875Z,0
2017-01-22T04:54:03.404Z,0
2017-01-22T04:54:43.934Z,0
2017-01-22T04:55:24.466Z,0
2017-01-22T04:56:05.002Z,0
2017-01-22T04:56:45.539Z,0
2017-01-22T04:57:26.060Z,0
2017-01-22T04:58:06.585Z,0
2017-01-22T04:58:47.117Z,0
2017-01-22T04:59:27.641Z,0
2017-01-22T05:00:08.171Z,0
2017-01-22T05:00:48.699Z,0
2017-01-22T05:01:29.227Z,0
2017-01-22T05:02:09.758Z,0
2017-01-22T05:02:50.291Z,0
2017-01-22T05:03:30.815Z,0
2017-01-22T05:04:11.340Z,0
2017-01-22T05:04:51.879Z,0
2017-01-22T05:05:32.410Z,0
2017-01-22T05:06:12.922Z,0
2017-01-22T05:06:53.501Z,0
2017-01-22T05:07:34.037Z,0
2017-01-22T05:08:14.567Z,0
2017-01-22T05:08:55.093Z,0
2017-01-22T05:09:35.631Z,0
2017-01-22T05:10:16.148Z,0
2017-01-22T05:10:56.684Z,0
2017-01-22T05:11:37.208Z,0
2017-01-22T05:12:17.741Z,0
2017-01-22T05:12:58.258Z,0
2017-01-22T05:13:38.795Z,0
2017-01-22T05:14:19.313Z,0
2017-01-22T05:14:59.860Z,0
2017-01-22T05:15:40.362Z,0
2017-01-22T05:16:20.894Z,0
2017-01-22T05:17:01.421Z,0
2017-01-22T05:17:41.946Z,0
2017-01-22T05:18:22.478Z,0
2017-01-22T05:19:03.011Z,0
2017-01-22T05:19:43.565Z,0
2017-01-22T05:20:24.085Z,0
2017-01-22T05:21:04.613Z,0
2017-01-22T05:21:45.118Z,0
2017-01-22T05:22:25.650Z,0
2017-01-22T05:23:06.173Z,0
2017-01-22T05:23:46.700Z,0
2017-01-22T05:24:27.226Z,0
2017-01-22T05:25:07.751Z,0
2017-01-22T05:25:48.283Z,0
2017-01-22T05:26:28.809Z,0
2017-01-22T05:27:09.339Z,0
2017-01-22T05:27:49.867Z,0
2017-01-22T05:28:30.397Z,0
2017-01-22T05:29:10.912Z,0
2017-01-22T05:29:51.439Z,0
2017-01-22T05:30:31.971Z,0
2017-01-22T05:31:12.502Z,0
2017-01-22T05:31:53.032Z,0
2017-01-22T05:32:33.562Z,0
2017-01-22T05:33:14.092Z,0
2017-01-22T05:33:54.621Z,0
2017-01-22T05:34:35.154Z,0
2017-01-22T05:35:15.715Z,0
2017-01-22T05:35:56.240Z,0
2017-01-22T05:36:36.769Z,0
2017-01-22T05:37:17.296Z,0
2017-01-22T05:37:57.819Z,0
2017-01-22T05:38:38.355Z,0
2017-01-22T05:39:18.881Z,0
2017-01-22T05:39:59.406Z,0
2017-01-22T05:40:39.935Z,0
2017-01-22T05:41:20.457Z,0
2017-01-22T05:42:00.992Z,0
2017-01-22T05:42:41.516Z,0
2017-01-22T05:43:22.044Z,0
2017-01-22T05:44:02.580Z,0
2017-01-22T05:44:43.110Z,0
2017-01-22T05:45:23.634Z,0
2017-01-22T05:46:04.160Z,0
2017-01-22T05:46:44.698Z,0
2017-01-22T05:47:25.229Z,0
2017-01-22T05:48:05.758Z,0
2017-01-22T05:48:46.286Z,0
2017-01-22T05:49:26.812Z,0
2017-01-22T05:50:07.348Z,0
2017-01-22T05:50:47.876Z,0
2017-01-22T05:51:28.409Z,0
2017-01-22T05:52:08.935Z,0
2017-01-22T05:52:49.460Z,0
2017-01-22T05:53:29.991Z,0
2017-01-22T05:54:10.517Z,0
2017-01-22T05:54:51.048Z,0
2017-01-22T05:55:31.578Z,0
2017-01-22T05:56:12.105Z,0
2017-01-22T05:56:52.624Z,0
2017-01-22T05:57:33.158Z,0
2017-01-22T05:58:13.685Z,0
2017-01-22T05:58:54.212Z,0
2017-01-22T05:59:34.743Z,0
2017-01-22T06:00:15.271Z,0
2017-01-22T06:00:55.814Z,0
2017-01-22T06:01:36.337Z,0
2017-01-22T06:02:16.865Z,0
2017-01-22T06:02:57.396Z,0
2017-01-22T06:03:37.919Z,0
2017-01-22T06:04:18.450Z,0
2017-01-22T06:04:58.984Z,0
2017-01-22T06:05:39.503Z,0
2017-01-22T06:06:20.040Z,0
2017-01-22T06:07:00.571Z,0
2017-01-22T06:07:41.093Z,0
2017-01-22T06:08:21.617Z,0
2017-01-22T06:09:02.180Z,0
2017-01-22T06:09:42.710Z,0
2017-01-22T06:10:23.241Z,0
2017-01-22T06:11:03.770Z,0
2017-01-22T06:11:44.299Z,0
2017-01-22T06:12:24.821Z,0
2017-01-22T06:13:05.370Z,0
2017-01-22T06:13:45.877Z,0
2017-01-22T06:14:26.405Z,0
2017-01-22T06:15:06.938Z,0
2017-01-22T06:15:47.468Z,0
2017-01-22T06:16:27.998Z,0
2017-01-22T06:17:08.527Z,0
2017-01-22T06:17:49.054Z,0
2017-01-22T06:18:29.574Z,0
2017-01-22T06:19:10.105Z,0
2017-01-22T06:19:50.634Z,0
2017-01-22T06:20:31.165Z,0
2017-01-22T06:21:11.695Z,0
2017-01-22T06:21:52.221Z,0
2017-01-22T06:22:32.787Z,0
2017-01-22T06:23:13.321Z,0
2017-01-22T06:23:53.853Z,0
2017-01-22T06:24:34.376Z,0
2017-01-22T06:25:14.907Z,0
2017-01-22T06:25:55.428Z,0
2017-01-22T06:26:35.961Z,0
2017-01-22T06:27:16.493Z,0
2017-01-22T06:27:57.014Z,0
2017-01-22T06:28:37.535Z,0
2017-01-22T06:29:18.070Z,0
2017-01-22T06:29:58.599Z,0
2017-01-22T06:30:39.122Z,0
2017-01-22T06:31:19.648Z,0
2017-01-22T06:32:00.179Z,0
2017-01-22T06:32:40.712Z,0
2017-01-22T06:33:21.236Z,0
2017-01-22T06:34:01.770Z,0
2017-01-22T06:34:42.284Z,0
2017-01-22T06:35:22.973Z,0
2017-01-22T06:36:03.507Z,0
2017-01-22T06:36:44.063Z,0
2017-01-22T06:37:24.599Z,0
2017-01-22T06:38:05.130Z,0
2017-01-22T06:38:46.062Z,0
2017-01-22T06:39:26.586Z,0
2017-01-22T06:40:07.118Z,0
2017-01-22T06:40:47.668Z,0
2017-01-22T06:41:28.194Z,0
2017-01-22T06:42:08.716Z,0
2017-01-22T06:42:49.300Z,0
2017-01-22T06:43:29.834Z,0
2017-01-22T06:44:10.358Z,0
2017-01-22T06:44:50.891Z,0
2017-01-22T06:45:31.418Z,0
2017-01-22T06:46:11.944Z,0
2017-01-22T06:46:52.477Z,4
2017-01-22T06:47:33.093Z,4
2017-01-22T06:48:13.828Z,0
2017-01-22T06:48:54.379Z,0
2017-01-22T06:49:34.910Z,0
2017-01-22T06:50:15.440Z,4
2017-01-22T06:50:55.970Z,4
2017-01-22T06:51:36.502Z,0
2017-01-22T06:52:17.030Z,4
2017-01-22T06:52:57.561Z,4
2017-01-22T06:53:38.090Z,4
2017-01-22T06:54:18.632Z,4
2017-01-22T06:54:59.169Z,8
2017-01-22T06:55:39.701Z,4
2017-01-22T06:56:20.224Z,8
2017-01-22T06:57:00.762Z,4
2017-01-22T06:57:41.290Z,8
2017-01-22T06:58:21.814Z,8
2017-01-22T06:59:02.333Z,12
2017-01-22T06:59:42.862Z,12
2017-01-22T07:00:23.398Z,12
2017-01-22T07:01:03.925Z,12
2017-01-22T07:01:44.452Z,16
2017-01-22T07:02:24.983Z,16
2017-01-22T07:03:05.508Z,16
2017-01-22T07:03:46.041Z,20
2017-01-22T07:04:26.567Z,20
2017-01-22T07:05:07.081Z,20
2017-01-22T07:05:47.609Z,24
2017-01-22T07:06:28.153Z,28
2017-01-22T07:07:08.677Z,28
2017-01-22T07:07:49.204Z,28
2017-01-22T07:08:29.760Z,32
2017-01-22T07:09:10.292Z,36
2017-01-22T07:09:50.793Z,36
2017-01-22T07:10:31.363Z,40
2017-01-22T07:11:11.834Z,44
2017-01-22T07:11:52.363Z,48
2017-01-22T07:12:32.905Z,48
2017-01-22T07:13:13.428Z,56
2017-01-22T07:13:53.950Z,60
2017-01-22T07:14:34.476Z,60
2017-01-22T07:15:15.015Z,68
2017-01-22T07:15:55.546Z,72
2017-01-22T07:16:36.072Z,76
2017-01-22T07:17:16.598Z,80
2017-01-22T07:17:57.124Z,84
2017-01-22T07:18:37.654Z,92
2017-01-22T07:19:18.182Z,96
2017-01-22T07:19:58.711Z,100
2017-01-22T07:20:39.243Z,104
2017-01-22T07:21:19.776Z,112
2017-01-22T07:22:00.308Z,120
2017-01-22T07:22:40.833Z,124
2017-01-22T07:23:21.361Z,128
2017-01-22T07:24:01.883Z,136
2017-01-22T07:24:42.418Z,144
2017-01-22T07:25:22.973Z,148
2017-01-22T07:26:03.502Z,156
2017-01-22T07:26:44.031Z,164
2017-01-22T07:27:24.555Z,168
2017-01-22T07:28:05.080Z,176
2017-01-22T07:28:45.611Z,184
2017-01-22T07:29:26.138Z,192
2017-01-22T07:30:06.668Z,200
2017-01-22T07:30:47.200Z,208
2017-01-22T07:31:27.732Z,216
2017-01-22T07:32:08.264Z,224
2017-01-22T07:32:48.790Z,232
2017-01-22T07:33:29.318Z,240
2017-01-22T07:34:09.851Z,252
2017-01-22T07:34:50.378Z,256
2017-01-22T07:35:30.904Z,268
2017-01-22T07:36:11.441Z,276
2017-01-22T07:36:51.974Z,284
2017-01-22T07:37:32.499Z,296
2017-01-22T07:38:13.029Z,304
2017-01-22T07:38:53.600Z,312
2017-01-22T07:39:34.128Z,324
2017-01-22T07:40:14.658Z,336
2017-01-22T07:40:55.188Z,348
2017-01-22T07:41:35.710Z,356
2017-01-22T07:42:16.243Z,368
2017-01-22T07:42:56.776Z,380
2017-01-22T07:43:37.296Z,392
2017-01-22T07:44:17.825Z,400
2017-01-22T07:44:58.354Z,416
2017-01-22T07:45:38.882Z,424
2017-01-22T07:46:19.411Z,436
2017-01-22T07:46:59.943Z,452
2017-01-22T07:47:40.468Z,464
2017-01-22T07:48:20.995Z,472
2017-01-22T07:49:01.518Z,484
2017-01-22T07:49:42.049Z,500
2017-01-22T07:50:22.578Z,512
2017-01-22T07:51:03.100Z,520
2017-01-22T07:51:43.633Z,536
2017-01-22T07:52:24.161Z,548
2017-01-22T07:53:04.700Z,560
2017-01-22T07:53:45.227Z,572
2017-01-22T07:54:26.290Z,580
2017-01-22T07:55:06.822Z,596
2017-01-22T07:55:47.350Z,608
2017-01-22T07:56:27.881Z,620
2017-01-22T07:57:08.409Z,632
2017-01-22T07:57:48.935Z,648
2017-01-22T07:58:29.462Z,660
2017-01-22T07:59:10.006Z,672
2017-01-22T07:59:50.610Z,684
2017-01-22T08:00:31.135Z,700
2017-01-22T08:01:11.667Z,712
2017-01-22T08:01:52.203Z,724
2017-01-22T08:02:32.736Z,736
2017-01-22T08:03:13.264Z,748
2017-01-22T08:03:53.790Z,760
2017-01-22T08:04:34.339Z,776
2017-01-22T08:05:14.845Z,788
2017-01-22T08:05:55.378Z,800
2017-01-22T08:06:35.901Z,812
2017-01-22T08:07:16.433Z,828
2017-01-22T08:07:57.186Z,840
2017-01-22T08:08:38.156Z,852
2017-01-22T08:09:19.139Z,864
2017-01-22T08:09:59.881Z,880
2017-01-22T08:10:40.614Z,896
2017-01-22T08:11:21.322Z,912
2017-01-22T08:12:02.011Z,928
2017-01-22T08:12:42.540Z,948
2017-01-22T08:13:23.155Z,968
2017-01-22T08:14:03.772Z,984
2017-01-22T08:14:44.307Z,1000
2017-01-22T08:15:24.883Z,1028
2017-01-22T08:16:05.390Z,1052
2017-01-22T08:16:45.913Z,1076
2017-01-22T08:17:26.671Z,1104
2017-01-22T08:18:07.289Z,1148
2017-01-22T08:18:48.701Z,1160
2017-01-22T08:19:29.230Z,1152
2017-01-22T08:20:09.752Z,1148
2017-01-22T08:20:50.287Z,1184
2017-01-22T08:21:30.888Z,1196
2017-01-22T08:22:11.627Z,1180
2017-01-22T08:22:52.155Z,1168
2017-01-22T08:23:32.686Z,1172
2017-01-22T08:24:13.214Z,1176
2017-01-22T08:24:53.747Z,1188
2017-01-22T08:25:34.269Z,1196
2017-01-22T08:26:14.797Z,1212
2017-01-22T08:26:55.321Z,1224
2017-01-22T08:27:35.854Z,1236
2017-01-22T08:28:16.380Z,1244
2017-01-22T08:28:56.899Z,1256
2017-01-22T08:29:37.427Z,1260
2017-01-22T08:30:17.966Z,1272
2017-01-22T08:30:58.499Z,1292
2017-01-22T08:31:39.027Z,1312
2017-01-22T08:32:19.551Z,1324
2017-01-22T08:33:00.080Z,1332
2017-01-22T08:33:40.610Z,1336
2017-01-22T08:34:21.133Z,1352
2017-01-22T08:35:01.660Z,1368
2017-01-22T08:35:42.188Z,1396
2017-01-22T08:36:22.715Z,1416
2017-01-22T08:37:03.246Z,1440
2017-01-22T08:37:43.923Z,1460
2017-01-22T08:38:24.805Z,1476
2017-01-22T08:39:05.350Z,1492
2017-01-22T08:39:45.880Z,1504
2017-01-22T08:40:26.421Z,1524
2017-01-22T08:41:07.009Z,1544
2017-01-22T08:41:47.532Z,1568
2017-01-22T08:42:28.162Z,1588
2017-01-22T08:43:08.805Z,1612
2017-01-22T08:43:49.604Z,1632
2017-01-22T08:44:30.348Z,1652
2017-01-22T08:45:10.972Z,1688
2017-01-22T08:45:51.497Z,1720
2017-01-22T08:46:32.247Z,1748
2017-01-22T08:47:12.775Z,1760
2017-01-22T08:47:53.469Z,1748
2017-01-22T08:48:34.155Z,1756
2017-01-22T08:49:14.932Z,1764
2017-01-22T08:49:55.576Z,1772
2017-01-22T08:50:36.106Z,1776
2017-01-22T08:51:16.636Z,1784
2017-01-22T08:51:57.263Z,1784
2017-01-22T08:52:37.943Z,1756
2017-01-22T08:53:18.549Z,1740
2017-01-22T08:53:59.196Z,1760
2017-01-22T08:54:39.726Z,1796
2017-01-22T08:55:20.421Z,1824
2017-01-22T08:56:01.095Z,1840
2017-01-22T08:56:41.697Z,1872
2017-01-22T08:57:22.267Z,1912
2017-01-22T08:58:02.866Z,1940
2017-01-22T08:58:43.373Z,1972
2017-01-22T08:59:23.918Z,2020
2017-01-22T09:00:04.514Z,2120
2017-01-22T09:00:45.255Z,2256
2017-01-22T09:01:25.985Z,2408
2017-01-22T09:02:06.655Z,2548
2017-01-22T09:02:47.181Z,2656
2017-01-22T09:03:27.899Z,2924
2017-01-22T09:04:08.444Z,3692
2017-01-22T09:04:48.988Z,4520
2017-01-22T09:05:29.520Z,5072
2017-01-22T09:06:10.069Z,5472
2017-01-22T09:06:50.597Z,5420
2017-01-22T09:07:31.122Z,5596
2017-01-22T09:08:11.648Z,6152
2017-01-22T09:08:52.196Z,6024
2017-01-22T09:09:32.737Z,5376
2017-01-22T09:10:13.334Z,4564
2017-01-22T09:10:53.880Z,4124
2017-01-22T09:11:34.397Z,4196
2017-01-22T09:12:14.989Z,4188
2017-01-22T09:12:55.570Z,4264
2017-01-22T09:13:36.111Z,4688
2017-01-22T09:14:16.699Z,5116
2017-01-22T09:14:57.214Z,5632
2017-01-22T09:15:37.739Z,5440
2017-01-22T09:16:18.323Z,5480
2017-01-22T09:16:58.868Z,5112
2017-01-22T09:17:39.406Z,5264
2017-01-22T09:18:20.084Z,4872
2017-01-22T09:19:00.665Z,4804
2017-01-22T09:19:41.192Z,4732
2017-01-22T09:20:21.712Z,4800
2017-01-22T09:21:03.185Z,4876
2017-01-22T09:21:43.748Z,4872
2017-01-22T09:22:24.449Z,4548
2017-01-22T09:23:05.031Z,4188
2017-01-22T09:23:45.823Z,4040
2017-01-22T09:24:26.384Z,4156
2017-01-22T09:25:06.908Z,4160
2017-01-22T09:25:47.445Z,4160
2017-01-22T09:26:28.001Z,4200
2017-01-22T09:27:08.530Z,4248
2017-01-22T09:27:49.060Z,4288
2017-01-22T09:28:29.596Z,4316
2017-01-22T09:29:10.138Z,4360
2017-01-22T09:29:50.664Z,4388
2017-01-22T09:30:31.191Z,4328
2017-01-22T09:31:11.715Z,4256
2017-01-22T09:31:52.234Z,4260
2017-01-22T09:32:32.759Z,4220
2017-01-22T09:33:13.346Z,4148
2017-01-22T09:33:53.877Z,4104
2017-01-22T09:34:34.410Z,4104
2017-01-22T09:35:14.942Z,4172
2017-01-22T09:35:55.474Z,4280
2017-01-22T09:36:36.772Z,4500
2017-01-22T09:37:19.637Z,4884
2017-01-22T09:39:34.362Z,8144
2017-01-22T09:40:14.964Z,9564
2017-01-22T09:40:55.498Z,10688
2017-01-22T09:41:36.017Z,11660
2017-01-22T09:42:16.633Z,12132
2017-01-22T09:42:57.131Z,12716
2017-01-22T09:43:37.667Z,13168
2017-01-22T09:44:18.197Z,13028
2017-01-22T09:44:58.712Z,12428
2017-01-22T09:45:39.248Z,11720
2017-01-22T09:46:19.782Z,11212
2017-01-22T09:47:00.312Z,10840
2017-01-22T09:47:40.843Z,11116
2017-01-22T09:48:21.379Z,12164
2017-01-22T09:49:01.902Z,13760
2017-01-22T09:49:43.064Z,14944
2017-01-22T09:50:23.848Z,15936
2017-01-22T09:51:04.933Z,16352
2017-01-22T09:51:45.980Z,16768
2017-01-22T09:54:21.288Z,16896
2017-01-22T09:56:35.996Z,17056
2017-01-22T09:57:17.088Z,17344
2017-01-22T09:57:58.101Z,17792
2017-01-22T09:58:39.088Z,18048
2017-01-22T09:59:19.817Z,18144
2017-01-22T10:00:00.673Z,18208
2017-01-22T10:02:38.797Z,19104
2017-01-22T10:03:22.278Z,19392
2017-01-22T10:04:05.780Z,19616
2017-01-22T10:04:48.804Z,20192
2017-01-22T10:05:32.239Z,19968
2017-01-22T10:06:16.286Z,20256
2017-01-22T10:06:58.931Z,20288
2017-01-22T10:07:40.264Z,20320
2017-01-22T10:08:21.405Z,20064
2017-01-22T10:09:02.213Z,19968
2017-01-22T10:09:43.282Z,19744
2017-01-22T10:10:24.441Z,20128
2017-01-22T10:11:04.999Z,20096
2017-01-22T10:11:45.553Z,20384
2017-01-22T10:12:26.402Z,20128
2017-01-22T10:13:07.107Z,20832
2017-01-22T10:13:47.784Z,21280
2017-01-22T10:14:28.328Z,21120
2017-01-22T10:15:08.861Z,21888
2017-01-22T10:15:49.696Z,22400
2017-01-22T10:16:30.442Z,22368
2017-01-22T10:17:11.112Z,22304
2017-01-22T10:17:51.850Z,22560
2017-01-22T10:18:32.354Z,22720
2017-01-22T10:19:13.065Z,22848
2017-01-22T10:20:00.439Z,23072
2017-01-22T10:21:03.947Z,22944
2017-01-22T10:21:46.468Z,22528
2017-01-22T10:22:29.805Z,21152
2017-01-22T10:23:13.780Z,17280
2017-01-22T10:23:57.782Z,11924
2017-01-22T10:24:40.060Z,8856
2017-01-22T10:25:20.724Z,8164
2017-01-22T10:26:01.384Z,8052
2017-01-22T10:26:41.917Z,7988
2017-01-22T10:27:22.431Z,7984
2017-01-22T10:28:02.968Z,7980
2017-01-22T10:28:43.503Z,8028
2017-01-22T10:29:24.323Z,8056
2017-01-22T10:30:04.975Z,8020
2017-01-22T10:30:45.679Z,8036
2017-01-22T10:31:26.210Z,8076
2017-01-22T10:32:06.888Z,8076
2017-01-22T10:32:47.534Z,8104
2017-01-22T10:33:28.057Z,8152
2017-01-22T10:34:08.703Z,8196
2017-01-22T10:34:49.234Z,8228
2017-01-22T10:35:29.909Z,8272
2017-01-22T10:36:10.621Z,8288